Time;durP1;ratioP1;P1;durP2;ratioP2;P2;SDS_P1;SDS_P2;PMS_P1;PMS_P2;Temp;Humidity;BMP_temperature;BMP_pressure;BME280_temperature;BME280_humidity;BME280_pressure;Samples;Min_cycle;Max_cycle;Signal;HPM_P1;HPM_P2
2022/11/01 00:01:52;;;;;;;66.80;32.17;;;;;;;12.37;100.00;100618.50;5091462;28;20211;-79
2022/11/01 00:04:19;;;;;;;65.57;29.67;;;;;;;12.35;100.00;100620.44;5090690;28;20207;-79
2022/11/01 00:06:45;;;;;;;64.67;31.43;;;;;;;12.35;100.00;100620.44;5091026;28;20223;-79
2022/11/01 00:09:12;;;;;;;70.50;31.80;;;;;;;12.35;100.00;100616.94;5091265;28;20204;-79
2022/11/01 00:11:40;;;;;;;64.77;31.70;;;;;;;12.33;100.00;100611.69;5091114;28;20211;-79
2022/11/01 00:14:07;;;;;;;67.63;32.43;;;;;;;12.30;100.00;100614.56;5090632;28;20207;-79
2022/11/01 00:16:33;;;;;;;68.50;30.10;;;;;;;12.28;100.00;100611.16;5091180;28;20226;-79
2022/11/01 00:19:00;;;;;;;63.10;30.57;;;;;;;12.27;100.00;100608.59;5054297;28;1068489;-80
2022/11/01 00:21:26;;;;;;;64.60;31.37;;;;;;;12.25;100.00;100600.69;5093147;28;20616;-80
2022/11/01 00:23:53;;;;;;;61.40;29.97;;;;;;;12.23;100.00;100609.75;5092395;28;20319;-80
2022/11/01 00:26:22;;;;;;;65.50;30.07;;;;;;;12.21;100.00;100606.34;5093047;28;20224;-79
2022/11/01 00:28:50;;;;;;;57.67;28.67;;;;;;;12.18;100.00;100599.44;5092793;28;20269;-80
2022/11/01 00:31:18;;;;;;;63.07;30.23;;;;;;;12.15;100.00;100588.97;5093077;28;20218;-80
2022/11/01 00:33:45;;;;;;;56.97;28.73;;;;;;;12.11;100.00;100598.16;5092405;28;20673;-80
2022/11/01 00:36:12;;;;;;;56.13;28.87;;;;;;;12.06;100.00;100600.28;5092541;28;20238;-80
2022/11/01 00:38:38;;;;;;;55.93;28.13;;;;;;;12.03;100.00;100600.47;5092847;28;20221;-79
2022/11/01 00:41:06;;;;;;;48.87;26.27;;;;;;;12.00;100.00;100595.38;5093969;28;20218;-80
2022/11/01 00:43:33;;;;;;;52.80;26.67;;;;;;;11.95;100.00;100590.38;5096419;28;20411;-80
2022/11/01 00:46:01;;;;;;;46.53;25.10;;;;;;;11.92;100.00;100601.25;5095785;28;20226;-80
2022/11/01 00:48:28;;;;;;;49.30;26.20;;;;;;;11.87;100.00;100591.84;5096040;28;20211;-79
2022/11/01 00:50:55;;;;;;;53.63;26.07;;;;;;;11.81;100.00;100579.81;5095848;28;20203;-80
2022/11/01 00:53:21;;;;;;;53.93;28.83;;;;;;;11.77;100.00;100587.16;5096612;28;20200;-79
2022/11/01 00:55:48;;;;;;;55.43;28.03;;;;;;;11.75;100.00;100580.19;5089616;28;20705;-79
2022/11/01 00:58:15;;;;;;;56.10;27.83;;;;;;;11.74;100.00;100573.16;5096409;28;20666;-80
2022/11/01 01:00:41;;;;;;;62.23;30.90;;;;;;;11.73;100.00;100574.94;5095899;28;20213;-79
2022/11/01 01:03:09;;;;;;;60.37;29.97;;;;;;;11.74;100.00;100590.00;5096043;28;20220;-79
2022/11/01 01:05:36;;;;;;;58.07;28.30;;;;;;;11.73;100.00;100588.28;5096076;28;20220;-79
2022/11/01 01:08:03;;;;;;;54.50;27.13;;;;;;;11.73;100.00;100576.78;5096186;28;20212;-80
2022/11/01 01:10:29;;;;;;;52.43;27.33;;;;;;;11.72;100.00;100573.25;5095997;28;20211;-79
2022/11/01 01:12:56;;;;;;;49.17;25.80;;;;;;;11.73;100.00;100561.63;5095996;28;20210;-80
2022/11/01 01:15:22;;;;;;;53.53;26.47;;;;;;;11.71;100.00;100565.34;5095269;28;20224;-79
2022/11/01 01:17:49;;;;;;;52.60;26.67;;;;;;;11.68;100.00;100566.41;5095209;28;20203;-79
2022/11/01 01:20:17;;;;;;;58.23;28.33;;;;;;;11.65;100.00;100555.94;5095686;28;20217;-80
2022/11/01 01:22:43;;;;;;;56.80;27.83;;;;;;;11.64;100.00;100553.41;5095177;28;20235;-79
2022/11/01 01:25:10;;;;;;;58.07;30.57;;;;;;;11.64;100.00;100550.75;5095137;28;20205;-79
2022/11/01 01:27:37;;;;;;;54.17;28.07;;;;;;;11.64;100.00;100550.75;5094844;28;20210;-80
2022/11/01 01:30:06;;;;;;;64.40;29.83;;;;;;;11.64;100.00;100545.41;5094886;28;20200;-80
2022/11/01 01:32:33;;;;;;;57.70;27.70;;;;;;;11.65;100.00;100536.41;5094853;28;20295;-80
2022/11/01 01:35:00;;;;;;;56.20;29.30;;;;;;;11.66;100.00;100535.47;5095336;28;20218;-79
2022/11/01 01:37:27;;;;;;;55.17;27.33;;;;;;;11.67;100.00;100539.84;5094978;28;20204;-80
2022/11/01 01:39:54;;;;;;;56.03;28.93;;;;;;;11.68;100.00;100545.06;5095226;28;20802;-79
2022/11/01 01:42:28;;;;;;;58.70;30.67;;;;;;;11.69;100.00;100532.59;5095136;28;20202;-79
2022/11/01 01:45:29;;;;;;;53.60;26.77;;;;;;;11.70;100.00;100524.47;5095153;28;20188;-79
2022/11/01 01:48:01;;;;;;;53.90;27.30;;;;;;;11.71;100.00;100515.50;5094969;28;20648;-79
2022/11/01 01:50:32;;;;;;;59.13;29.07;;;;;;;11.71;100.00;100510.19;5094647;28;20210;-78
2022/11/01 01:53:03;;;;;;;59.77;28.97;;;;;;;11.74;100.00;100504.63;5093768;28;20752;-79
2022/11/01 01:55:34;;;;;;;55.30;26.53;;;;;;;11.74;100.00;100499.28;5094005;28;20235;-79
2022/11/01 01:58:01;;;;;;;57.47;27.57;;;;;;;11.69;100.00;100490.75;5093800;28;20193;-79
2022/11/01 02:00:28;;;;;;;54.30;27.60;;;;;;;11.65;100.00;100491.06;5094129;28;20707;-79
2022/11/01 02:02:54;;;;;;;51.83;25.87;;;;;;;11.62;100.00;100488.63;5093605;28;20235;-79
2022/11/01 02:05:29;;;;;;;53.90;26.00;;;;;;;11.61;100.00;100481.59;5094650;28;20232;-80
2022/11/01 02:07:56;;;;;;;54.43;28.33;;;;;;;11.59;100.00;100473.69;5094829;28;20191;-79
2022/11/01 02:10:24;;;;;;;55.00;26.50;;;;;;;11.60;100.00;100474.56;5094491;28;20203;-79
2022/11/01 02:12:51;;;;;;;53.37;26.40;;;;;;;11.60;100.00;100478.06;5094915;28;20612;-80
2022/11/01 02:15:20;;;;;;;54.17;27.10;;;;;;;11.61;100.00;100465.59;5094158;28;20212;-79
2022/11/01 02:17:57;;;;;;;50.60;27.23;;;;;;;11.62;100.00;100475.31;5094089;28;20208;-79
2022/11/01 02:20:42;;;;;;;51.97;26.23;;;;;;;11.62;100.00;100468.16;5093642;28;20184;-80
2022/11/01 02:23:35;;;;;;;55.83;27.50;;;;;;;11.63;100.00;100464.53;5093623;28;20214;-79
2022/11/01 02:26:19;;;;;;;50.77;27.10;;;;;;;11.64;100.00;100463.56;5093816;28;20232;-79
2022/11/01 02:28:56;;;;;;;58.50;27.87;;;;;;;11.64;100.00;100457.38;5093146;28;20188;-79
2022/11/01 02:31:40;;;;;;;52.90;26.40;;;;;;;11.66;100.00;100466.09;5093685;28;20188;-79
2022/11/01 02:34:16;;;;;;;51.83;26.60;;;;;;;11.65;100.00;100462.56;5093602;28;20199;-79
2022/11/01 02:36:48;;;;;;;55.60;27.07;;;;;;;11.65;100.00;100457.25;5094070;28;20253;-79
2022/11/01 02:39:20;;;;;;;58.37;26.93;;;;;;;11.67;100.00;100454.47;5094483;28;20192;-80
2022/11/01 02:41:52;;;;;;;50.67;25.27;;;;;;;11.65;100.00;100449.25;5093867;28;20196;-80
2022/11/01 02:44:22;;;;;;;51.00;24.67;;;;;;;11.61;100.00;100450.44;5094126;28;20594;-79
2022/11/01 02:47:01;;;;;;;45.80;25.83;;;;;;;11.57;100.00;100448.09;5093794;28;20228;-79
2022/11/01 02:49:32;;;;;;;48.03;26.67;;;;;;;11.54;100.00;100449.16;5092695;28;20195;-78
2022/11/01 02:52:01;;;;;;;52.37;27.00;;;;;;;11.55;100.00;100450.00;5093357;28;20652;-80
2022/11/01 02:54:31;;;;;;;61.73;27.83;;;;;;;11.58;100.00;100444.47;5092910;28;20206;-79
2022/11/01 02:57:03;;;;;;;56.07;27.27;;;;;;;11.63;100.00;100448.53;5073089;28;20228;-79
2022/11/01 02:59:29;;;;;;;58.27;29.23;;;;;;;11.69;100.00;100448.06;5088360;28;20660;-79
2022/11/01 03:02:02;;;;;;;59.80;29.53;;;;;;;11.76;100.00;100449.38;5093135;28;20805;-79
2022/11/01 03:04:30;;;;;;;56.47;28.93;;;;;;;11.86;100.00;100454.91;5091940;28;20215;-79
2022/11/01 03:06:59;;;;;;;54.27;28.30;;;;;;;11.94;100.00;100441.00;5092899;28;20735;-79
2022/11/01 03:09:27;;;;;;;57.53;28.40;;;;;;;12.02;100.00;100443.97;5092777;28;20204;-79
2022/11/01 03:11:59;;;;;;;53.47;26.87;;;;;;;12.09;100.00;100439.91;5093258;28;20219;-79
2022/11/01 03:14:33;;;;;;;52.47;26.33;;;;;;;12.16;100.00;100433.16;5093103;28;20192;-79
2022/11/01 03:17:07;;;;;;;53.27;26.47;;;;;;;12.22;100.00;100429.16;5092689;28;20222;-79
2022/11/01 03:19:42;;;;;;;56.13;26.47;;;;;;;12.28;100.00;100439.41;5092159;28;20212;-79
2022/11/01 03:22:13;;;;;;;49.70;26.07;;;;;;;12.31;100.00;100437.38;5091747;28;20200;-79
2022/11/01 03:24:45;;;;;;;47.23;25.87;;;;;;;12.35;100.00;100435.31;5090682;28;20228;-79
2022/11/01 03:27:17;;;;;;;47.43;25.93;;;;;;;12.39;100.00;100442.97;5092086;28;20776;-79
2022/11/01 03:29:48;;;;;;;43.43;24.40;;;;;;;12.44;100.00;100437.31;5091873;28;20238;-79
2022/11/01 03:32:17;;;;;;;46.33;22.70;;;;;;;12.49;100.00;100433.34;5091882;28;20672;-79
2022/11/01 03:34:46;;;;;;;47.03;23.80;;;;;;;12.58;100.00;100436.25;5092669;28;20211;-79
2022/11/01 03:37:14;;;;;;;48.63;23.83;;;;;;;12.63;100.00;100418.06;5092652;28;20250;-79
2022/11/01 03:39:44;;;;;;;36.30;22.60;;;;;;;12.67;100.00;100425.75;5092637;28;20206;-79
2022/11/01 03:42:14;;;;;;;41.17;22.17;;;;;;;12.72;100.00;100428.09;5092122;28;20207;-79
2022/11/01 03:44:44;;;;;;;35.63;21.97;;;;;;;12.75;100.00;100427.81;5092195;28;20632;-79
2022/11/01 03:47:12;;;;;;;37.33;21.30;;;;;;;12.77;100.00;100424.06;5092173;28;20218;-80
2022/11/01 03:49:38;;;;;;;35.00;20.00;;;;;;;12.79;100.00;100416.78;5091063;28;20227;-79
2022/11/01 03:52:06;;;;;;;33.40;20.33;;;;;;;12.81;100.00;100409.50;5091286;28;20197;-79
2022/11/01 03:54:33;;;;;;;35.97;19.43;;;;;;;12.82;100.00;100407.69;5091215;28;20295;-79
2022/11/01 03:56:59;;;;;;;33.90;19.00;;;;;;;12.85;100.00;100399.44;5091006;28;20232;-79
2022/11/01 03:59:26;;;;;;;32.20;19.17;;;;;;;12.86;100.00;100404.69;5091473;28;20223;-79
2022/11/01 04:01:53;;;;;;;31.97;18.70;;;;;;;12.88;100.00;100383.19;5090558;28;20217;-79
2022/11/01 04:04:19;;;;;;;30.97;18.97;;;;;;;12.92;100.00;100392.66;5091226;28;20261;-80
2022/11/01 04:06:45;;;;;;;31.60;18.67;;;;;;;12.95;100.00;100380.88;5091974;28;20228;-80
2022/11/01 04:09:13;;;;;;;29.20;17.83;;;;;;;12.97;100.00;100387.81;5092276;28;20204;-79
2022/11/01 04:11:40;;;;;;;28.23;18.10;;;;;;;12.99;100.00;100387.69;5091347;28;20204;-79
2022/11/01 04:22:27;;;;;;;26.57;16.30;;;;;;;13.15;100.00;100366.84;5065275;28;20249;-79
2022/11/01 04:24:55;;;;;;;26.53;16.07;;;;;;;13.19;100.00;100374.50;5090709;28;20220;-79
2022/11/01 04:27:21;;;;;;;27.50;16.70;;;;;;;13.22;100.00;100377.91;5090645;28;20243;-79
2022/11/01 04:29:47;;;;;;;23.30;15.30;;;;;;;13.23;100.00;100384.97;5081331;28;20220;-78
2022/11/01 04:32:14;;;;;;;28.17;16.40;;;;;;;13.23;100.00;100401.88;5090430;28;20217;-79
2022/11/01 04:34:43;;;;;;;25.17;15.77;;;;;;;13.27;100.00;100415.81;5091187;28;20202;-79
2022/11/01 04:37:10;;;;;;;21.43;12.57;;;;;;;13.29;100.00;100408.53;5090946;28;20216;-78
2022/11/01 04:39:37;;;;;;;17.60;10.90;;;;;;;13.39;100.00;100412.19;5090896;28;20204;-79
2022/11/01 04:42:05;;;;;;;15.20;8.57;;;;;;;13.46;100.00;100398.22;5090082;28;20200;-80
2022/11/01 04:44:31;;;;;;;17.53;9.30;;;;;;;13.57;100.00;100404.53;5090220;28;20678;-80
2022/11/01 04:46:58;;;;;;;15.97;9.20;;;;;;;13.65;100.00;100408.28;5087108;28;20227;-79
2022/11/01 04:49:24;;;;;;;14.37;8.53;;;;;;;13.74;100.00;100415.59;5087021;28;20207;-79
2022/11/01 04:51:51;;;;;;;16.27;9.30;;;;;;;13.82;100.00;100415.81;5087586;28;20200;-78
2022/11/01 04:54:17;;;;;;;16.67;9.33;;;;;;;13.89;100.00;100422.41;5083901;28;20203;-79
2022/11/01 04:56:44;;;;;;;13.63;8.07;;;;;;;13.97;100.00;100418.25;5088792;28;20224;-78
2022/11/01 04:59:11;;;;;;;11.93;8.43;;;;;;;14.04;100.00;100414.09;5090121;28;20211;-79
2022/11/01 05:01:38;;;;;;;15.23;8.17;;;;;;;14.09;100.00;100410.06;5089219;28;20211;-79
2022/11/01 05:04:04;;;;;;;10.97;8.30;;;;;;;14.15;100.00;100417.59;5090393;28;20212;-79
2022/11/01 05:06:31;;;;;;;10.33;8.37;;;;;;;14.20;100.00;100425.25;5090922;28;20360;-78
2022/11/01 05:08:58;;;;;;;12.33;8.17;;;;;;;14.24;100.00;100416.00;5091074;28;20767;-80
2022/11/01 05:11:25;;;;;;;14.03;8.03;;;;;;;14.28;99.43;100417.44;5083300;28;20662;-80
2022/11/01 05:13:51;;;;;;;14.70;8.00;;;;;;;14.33;98.69;100420.56;5086271;28;20192;-79
2022/11/01 05:16:19;;;;;;;15.27;7.83;;;;;;;14.42;97.74;100419.88;5090746;28;20228;-79
2022/11/01 05:18:45;;;;;;;13.70;8.57;;;;;;;14.47;97.07;100423.03;5090089;28;20674;-80
2022/11/01 05:21:12;;;;;;;10.53;6.97;;;;;;;14.55;96.11;100423.22;5091228;28;20215;-79
2022/11/01 05:23:38;;;;;;;13.97;7.50;;;;;;;14.59;95.27;100424.66;5090972;28;20211;-79
2022/11/01 05:26:05;;;;;;;10.73;7.30;;;;;;;14.69;94.03;100421.22;5090979;28;20330;-79
2022/11/01 05:28:32;;;;;;;10.37;6.77;;;;;;;14.72;93.13;100431.66;5091768;28;20213;-78
2022/11/01 05:30:58;;;;;;;9.03;6.60;;;;;;;14.79;92.77;100435.56;5074977;28;20213;-78
2022/11/01 05:33:26;;;;;;;10.73;6.53;;;;;;;14.84;92.38;100438.69;5074640;28;20205;-78
2022/11/01 05:35:53;;;;;;;12.70;6.83;;;;;;;14.86;91.67;100437.59;5073832;28;20617;-78
2022/11/01 05:38:19;;;;;;;9.90;6.40;;;;;;;14.91;91.07;100437.19;5081005;28;20648;-79
2022/11/01 05:40:46;;;;;;;10.37;6.13;;;;;;;14.95;90.60;100435.94;5093763;28;20621;-79
2022/11/01 05:43:12;;;;;;;10.33;5.80;;;;;;;15.00;90.47;100447.16;5094362;28;20204;-79
2022/11/01 05:45:39;;;;;;;14.40;5.93;;;;;;;15.05;90.06;100441.41;5093661;28;20235;-79
2022/11/01 05:48:05;;;;;;;8.87;5.73;;;;;;;15.08;90.18;100443.78;5093643;28;20203;-79
2022/11/01 05:50:33;;;;;;;9.17;6.27;;;;;;;15.10;89.95;100444.53;5093954;28;20206;-79
2022/11/01 05:53:06;;;;;;;10.90;6.97;;;;;;;15.13;89.70;100447.78;5094516;28;20212;-79
2022/11/01 05:55:33;;;;;;;10.67;5.97;;;;;;;15.16;88.80;100447.53;5095030;28;20237;-79
2022/11/01 05:58:00;;;;;;;10.03;6.23;;;;;;;15.19;88.58;100457.16;5094109;28;20572;-79
2022/11/01 06:00:26;;;;;;;12.93;5.67;;;;;;;15.19;88.30;100465.22;5094029;28;20663;-79
2022/11/01 06:02:52;;;;;;;9.93;6.23;;;;;;;15.22;88.17;100460.44;5093550;28;20672;-79
2022/11/01 06:05:19;;;;;;;8.90;5.20;;;;;;;15.23;87.79;100470.16;5094060;28;20220;-80
2022/11/01 06:07:47;;;;;;;11.10;6.23;;;;;;;15.25;87.37;100473.56;5093773;28;20230;-79
2022/11/01 06:10:13;;;;;;;10.53;6.40;;;;;;;15.26;87.44;100461.84;5093736;28;20200;-79
2022/11/01 06:12:40;;;;;;;9.07;5.70;;;;;;;15.28;86.96;100457.22;5093765;28;20204;-77
2022/11/01 06:15:07;;;;;;;12.53;6.10;;;;;;;15.29;87.12;100448.19;5093452;28;20204;-78
2022/11/01 06:17:34;;;;;;;10.37;5.87;;;;;;;15.28;86.96;100451.84;5093208;28;20208;-79
2022/11/01 06:20:00;;;;;;;9.77;5.60;;;;;;;15.30;86.65;100451.72;5093646;28;20757;-78
2022/11/01 06:22:27;;;;;;;9.93;6.03;;;;;;;15.31;86.51;100450.72;5093890;28;20881;-78
2022/11/01 06:24:55;;;;;;;9.73;5.83;;;;;;;15.34;86.12;100457.66;5094250;28;20228;-78
2022/11/01 06:27:21;;;;;;;10.23;6.07;;;;;;;15.32;86.37;100457.81;5093266;28;20232;-80
2022/11/01 06:29:48;;;;;;;11.93;6.50;;;;;;;15.34;86.06;100471.94;5093288;28;20208;-80
2022/11/01 06:32:14;;;;;;;9.27;6.63;;;;;;;15.32;86.09;100462.31;5093372;28;20577;-79
2022/11/01 06:34:41;;;;;;;11.40;6.00;;;;;;;15.31;85.65;100464.16;5093943;28;20552;-80
2022/11/01 06:37:07;;;;;;;9.80;6.30;;;;;;;15.29;86.14;100472.31;5093456;28;20878;-79
2022/11/01 06:39:33;;;;;;;9.83;6.30;;;;;;;15.30;86.03;100473.19;5092338;28;20667;-79
2022/11/01 06:42:01;;;;;;;11.70;6.33;;;;;;;15.31;86.03;100477.56;5093724;28;20239;-80
2022/11/01 06:44:56;;;;;;;10.03;5.53;;;;;;;15.34;85.87;100479.13;5092918;28;20574;-79
2022/11/01 06:47:22;;;;;;;11.20;5.70;;;;;;;15.35;86.06;100486.22;5070625;28;20225;-79
2022/11/01 06:49:48;;;;;;;9.60;5.80;;;;;;;15.38;85.55;100488.63;5072476;28;20233;-79
2022/11/01 06:52:15;;;;;;;10.67;5.50;;;;;;;15.39;85.94;100504.59;5072452;28;20209;-78
2022/11/01 06:54:41;;;;;;;11.23;5.97;;;;;;;15.41;85.73;100499.94;5072259;28;20202;-79
2022/11/01 06:57:09;;;;;;;9.23;6.27;;;;;;;15.40;85.67;100509.00;5072050;28;20236;-79
2022/11/01 06:59:36;;;;;;;10.37;5.97;;;;;;;15.40;85.81;100508.13;5072168;28;20210;-79
2022/11/01 07:02:02;;;;;;;11.37;6.30;;;;;;;15.40;85.83;100511.69;5071918;28;20210;-79
2022/11/01 07:04:29;;;;;;;8.70;5.93;;;;;;;15.42;85.70;100522.25;5071639;28;20229;-79
2022/11/01 07:06:55;;;;;;;12.13;6.53;;;;;;;15.43;85.92;100521.28;5072341;28;20643;-78
2022/11/01 07:09:22;;;;;;;10.57;6.47;;;;;;;15.45;85.79;100522.00;5072951;28;20769;-78
2022/11/01 07:11:48;;;;;;;10.00;6.90;;;;;;;15.47;85.55;100525.41;5072755;28;20205;-79
2022/11/01 07:14:16;;;;;;;10.60;6.57;;;;;;;15.49;85.37;100532.34;5070715;28;20224;-79
2022/11/01 07:16:42;;;;;;;11.87;6.23;;;;;;;15.50;85.09;100539.41;5071308;28;20229;-79
2022/11/01 07:19:09;;;;;;;11.17;6.83;;;;;;;15.51;85.28;100538.44;5071103;28;20213;-79
2022/11/01 07:21:36;;;;;;;9.47;6.60;;;;;;;15.52;85.24;100533.91;5071719;28;20216;-79
2022/11/01 07:24:02;;;;;;;8.73;6.17;;;;;;;15.53;85.37;100541.00;5071330;28;20209;-79
2022/11/01 07:26:28;;;;;;;8.67;6.00;;;;;;;15.55;85.32;100547.09;5071338;28;20240;-79
2022/11/01 07:28:55;;;;;;;11.70;6.53;;;;;;;15.55;84.97;100545.28;5071415;28;20205;-79
2022/11/01 07:31:24;;;;;;;9.30;5.97;;;;;;;15.58;84.95;100549.53;5071364;28;20209;-79
2022/11/01 07:33:50;;;;;;;9.03;5.97;;;;;;;15.59;84.89;100548.53;5071535;28;20210;-78
2022/11/01 07:36:17;;;;;;;9.33;5.63;;;;;;;15.59;84.89;100548.53;5071004;28;20854;-79
2022/11/01 07:38:43;;;;;;;7.83;5.50;;;;;;;15.67;84.45;100548.75;5071397;28;20556;-78
2022/11/01 07:41:10;;;;;;;10.27;5.70;;;;;;;15.67;84.51;100543.38;5071310;28;20930;-79
2022/11/01 07:43:37;;;;;;;7.47;5.27;;;;;;;15.71;84.43;100544.81;5071152;28;20656;-79
2022/11/01 07:46:05;;;;;;;11.27;5.60;;;;;;;15.74;84.35;100546.38;5071033;28;20241;-79
2022/11/01 07:48:35;;;;;;;10.97;6.00;;;;;;;15.76;84.04;100547.97;5070908;28;20289;-78
2022/11/01 07:51:04;;;;;;;11.10;5.07;;;;;;;15.78;83.91;100548.66;5071264;28;20215;-78
2022/11/01 07:53:31;;;;;;;8.60;5.07;;;;;;;15.82;83.59;100546.56;5070926;28;20210;-79
2022/11/01 07:56:00;;;;;;;8.30;5.47;;;;;;;15.82;83.66;100552.78;5071706;28;20226;-79
2022/11/01 07:58:26;;;;;;;8.43;5.00;;;;;;;15.83;83.88;100559.00;5071804;28;20225;-79
2022/11/01 08:00:53;;;;;;;8.33;5.00;;;;;;;15.83;83.72;100567.91;5071711;28;20217;-79
2022/11/01 08:03:19;;;;;;;9.90;4.97;;;;;;;15.84;83.79;100566.06;5071988;28;20218;-78
2022/11/01 08:05:48;;;;;;;10.43;4.87;;;;;;;15.87;83.65;100571.19;5071446;28;20230;-80
2022/11/01 08:08:15;;;;;;;7.57;5.07;;;;;;;15.93;83.39;100570.66;5071300;28;20210;-80
2022/11/01 08:10:42;;;;;;;7.27;4.77;;;;;;;15.94;83.51;100578.56;5070861;28;20215;-79
2022/11/01 08:13:14;;;;;;;8.00;4.80;;;;;;;15.99;83.71;100575.47;5070979;28;20244;-78
2022/11/01 08:15:41;;;;;;;7.17;5.00;;;;;;;16.04;83.66;100573.25;5070872;28;20229;-79
2022/11/01 08:18:08;;;;;;;7.43;3.83;;;;;;;16.13;83.32;100566.22;5070649;28;20223;-79
2022/11/01 08:20:34;;;;;;;7.57;4.17;;;;;;;16.18;82.53;100574.72;5070712;28;20194;-79
2022/11/01 08:23:05;;;;;;;6.87;4.50;;;;;;;16.22;82.25;100570.78;5070850;28;20218;-80
2022/11/01 08:25:31;;;;;;;10.83;5.43;;;;;;;16.26;81.94;100569.53;5084860;28;20233;-79
2022/11/01 08:28:04;;;;;;;8.93;4.37;;;;;;;16.29;82.03;100578.19;5087404;28;20203;-80
2022/11/01 08:30:38;;;;;;;7.27;4.73;;;;;;;16.31;81.83;100578.03;5087619;28;20206;-79
2022/11/01 08:33:04;;;;;;;7.33;4.57;;;;;;;16.33;81.85;100573.38;5082363;28;20564;-79
2022/11/01 08:35:32;;;;;;;7.87;4.93;;;;;;;16.38;81.73;100576.50;5082322;28;20326;-79
2022/11/01 08:37:59;;;;;;;6.37;4.23;;;;;;;16.42;81.78;100590.53;5087510;28;20206;-80
2022/11/01 08:40:28;;;;;;;8.43;4.43;;;;;;;16.47;81.30;100590.97;5079174;28;20589;-80
2022/11/01 08:42:56;;;;;;;9.23;4.53;;;;;;;16.47;81.04;100591.84;5081482;28;20592;-79
2022/11/01 08:45:23;;;;;;;6.77;4.70;;;;;;;16.50;80.96;100598.75;5085678;28;20222;-79
2022/11/01 08:47:50;;;;;;;8.07;4.00;;;;;;;16.51;80.93;100601.31;5081005;28;20261;-79
2022/11/01 08:50:17;;;;;;;9.47;4.27;;;;;;;16.53;80.79;100607.41;5088082;28;20195;-79
2022/11/01 08:52:44;;;;;;;6.53;4.47;;;;;;;16.60;80.29;100616.63;5090627;28;20864;-80
2022/11/01 08:55:11;;;;;;;7.27;3.83;;;;;;;16.64;79.99;100620.78;5080329;28;20199;-79
2022/11/01 08:57:39;;;;;;;8.27;3.90;;;;;;;16.66;79.82;100616.09;5085631;28;20211;-79
2022/11/01 09:00:08;;;;;;;6.97;3.77;;;;;;;16.72;79.40;100619.22;5086328;28;20210;-79
2022/11/01 09:02:35;;;;;;;5.73;3.97;;;;;;;16.75;79.36;100606.38;5087273;28;20251;-80
2022/11/01 09:05:04;;;;;;;7.37;4.40;;;;;;;16.80;79.47;100609.50;5093034;28;20223;-80
2022/11/01 09:07:30;;;;;;;8.03;4.40;;;;;;;16.83;79.03;100608.38;5093296;28;20260;-80
2022/11/01 09:09:59;;;;;;;6.70;4.00;;;;;;;16.86;78.95;100613.47;5091852;28;20199;-80
2022/11/01 09:12:25;;;;;;;8.33;3.70;;;;;;;16.87;78.68;100618.69;5094578;28;20686;-80
2022/11/01 09:14:53;;;;;;;5.67;3.60;;;;;;;16.90;78.71;100618.44;5094871;28;20199;-79
2022/11/01 09:17:20;;;;;;;4.93;3.73;;;;;;;16.92;78.48;100623.69;5094396;28;20257;-80
2022/11/01 09:19:46;;;;;;;6.37;3.90;;;;;;;16.96;78.41;100628.66;5094409;28;20227;-79
2022/11/01 09:22:12;;;;;;;8.33;3.87;;;;;;;17.03;78.33;100620.84;5095020;28;20642;-80
2022/11/01 09:24:39;;;;;;;6.43;3.70;;;;;;;17.07;77.87;100621.44;5094214;28;20248;-79
2022/11/01 09:27:07;;;;;;;7.90;4.03;;;;;;;17.10;77.91;100634.63;5093962;28;20226;-79
2022/11/01 09:29:34;;;;;;;6.23;3.50;;;;;;;17.13;77.65;100637.03;5089317;28;20287;-80
2022/11/01 09:32:02;;;;;;;6.27;4.20;;;;;;;17.18;77.06;100646.41;5084240;28;20206;-80
2022/11/01 09:34:28;;;;;;;6.20;3.40;;;;;;;17.18;76.69;100641.00;5093982;28;20213;-79
2022/11/01 09:36:55;;;;;;;5.53;3.57;;;;;;;17.20;76.68;100647.09;5094154;28;20234;-79
2022/11/01 09:39:21;;;;;;;7.20;3.50;;;;;;;17.20;76.56;100643.53;5094836;28;20216;-79
2022/11/01 09:41:51;;;;;;;6.23;3.70;;;;;;;17.19;76.14;100650.78;5094345;28;20201;-79
2022/11/01 09:44:23;;;;;;;6.20;3.03;;;;;;;17.21;75.52;100651.47;5091248;28;20744;-79
2022/11/01 09:46:52;;;;;;;4.53;3.33;;;;;;;17.21;75.21;100651.47;5092908;28;20231;-79
2022/11/01 09:49:23;;;;;;;5.97;2.73;;;;;;;17.25;74.75;100652.06;5094166;28;20205;-79
2022/11/01 09:51:50;;;;;;;4.40;2.80;;;;;;;17.25;74.47;100654.75;5094273;28;20564;-79
2022/11/01 09:54:19;;;;;;;7.00;3.00;;;;;;;17.28;73.98;100658.00;5093499;28;20212;-79
2022/11/01 09:56:52;;;;;;;6.80;2.93;;;;;;;17.30;73.73;100665.94;5093417;28;20218;-79
2022/11/01 09:59:26;;;;;;;6.33;2.93;;;;;;;17.30;73.12;100665.94;5093514;28;20193;-79
2022/11/01 10:02:04;;;;;;;4.20;2.50;;;;;;;17.33;72.36;100665.69;5093255;28;20209;-79
2022/11/01 10:05:00;;;;;;;5.83;2.97;;;;;;;17.32;72.02;100666.66;5093247;28;20200;-79
2022/11/01 10:07:34;;;;;;;4.63;2.63;;;;;;;17.32;71.19;100678.28;5092813;28;20859;-80
2022/11/01 10:10:11;;;;;;;4.87;2.87;;;;;;;17.30;71.16;100674.88;5093427;28;20200;-79
2022/11/01 10:12:50;;;;;;;3.70;2.70;;;;;;;17.30;71.23;100672.19;5093696;28;20662;-79
2022/11/01 10:15:31;;;;;;;4.63;3.30;;;;;;;17.32;70.99;100689.06;5090973;28;20197;-79
2022/11/01 10:18:03;;;;;;;15.63;4.53;;;;;;;17.34;70.80;100688.91;5076771;28;20189;-79
2022/11/01 10:20:36;;;;;;;4.67;3.30;;;;;;;17.31;70.28;100678.41;5093670;28;20189;-79
2022/11/01 10:23:05;;;;;;;3.37;2.67;;;;;;;17.32;70.37;100686.38;5085726;28;20200;-79
2022/11/01 10:25:36;;;;;;;6.13;2.90;;;;;;;17.34;69.95;100692.47;5094858;28;20239;-80
2022/11/01 10:28:10;;;;;;;4.80;3.03;;;;;;;17.34;70.12;100699.69;5094730;28;20196;-78
2022/11/01 10:30:40;;;;;;;4.63;3.03;;;;;;;17.35;70.03;100696.00;5093391;28;20203;-78
2022/11/01 10:33:22;;;;;;;6.30;2.97;;;;;;;17.38;70.26;100697.56;5093603;28;20226;-78
2022/11/01 10:35:56;;;;;;;5.30;3.23;;;;;;;17.39;70.24;100697.41;5093300;28;20225;-80
2022/11/01 10:38:34;;;;;;;3.83;2.90;;;;;;;17.42;70.26;100699.81;5093114;28;20219;-79
2022/11/01 10:41:06;;;;;;;5.63;3.37;;;;;;;17.45;69.72;100701.38;5092855;28;20198;-79
2022/11/01 10:43:36;;;;;;;5.87;3.27;;;;;;;17.50;69.95;100701.81;5093358;28;20681;-78
2022/11/01 10:46:06;;;;;;;6.20;3.10;;;;;;;17.57;69.95;100697.56;5092738;28;20246;-78
2022/11/01 10:48:37;;;;;;;4.90;3.17;;;;;;;17.65;69.94;100697.75;5092869;28;20217;-79
2022/11/01 10:51:08;;;;;;;6.13;3.17;;;;;;;17.71;69.99;100709.81;5092882;28;20258;-78
2022/11/01 10:53:40;;;;;;;5.07;3.20;;;;;;;17.74;69.37;100709.50;5093226;28;20705;-78
2022/11/01 10:56:11;;;;;;;4.53;3.17;;;;;;;17.72;68.75;100706.97;5092776;28;20233;-77
2022/11/01 10:58:41;;;;;;;6.80;2.80;;;;;;;17.72;68.55;100716.91;5092584;28;20689;-78
2022/11/01 11:01:12;;;;;;;5.37;3.40;;;;;;;17.69;68.37;100724.28;5092544;28;20209;-77
2022/11/01 11:03:41;;;;;;;6.10;3.10;;;;;;;17.66;67.98;100721.84;5092487;28;20186;-79
2022/11/01 11:06:14;;;;;;;4.73;2.80;;;;;;;17.61;67.02;100740.25;5092395;28;20229;-79
2022/11/01 11:08:43;;;;;;;3.80;3.00;;;;;;;17.55;65.80;100734.59;5092857;28;20641;-79
2022/11/01 11:11:14;;;;;;;5.50;3.27;;;;;;;17.48;64.68;100741.50;5092554;28;20223;-79
2022/11/01 11:13:42;;;;;;;4.47;2.73;;;;;;;17.43;64.34;100741.91;5092904;28;20190;-80
2022/11/01 11:16:16;;;;;;;4.47;2.60;;;;;;;17.39;63.59;100751.25;5092822;28;20606;-78
2022/11/01 11:19:00;;;;;;;6.23;2.00;;;;;;;17.40;63.49;100746.72;5092610;28;20220;-78
2022/11/01 11:21:32;;;;;;;4.03;1.90;;;;;;;17.37;62.71;100747.03;5092456;28;20189;-79
2022/11/01 11:23:59;;;;;;;3.63;1.90;;;;;;;17.38;62.34;100754.09;5091799;28;20198;-79
2022/11/01 11:26:27;;;;;;;3.47;1.60;;;;;;;17.39;62.02;100745.88;5092458;28;20237;-79
2022/11/01 11:28:56;;;;;;;1.73;1.50;;;;;;;17.40;61.67;100754.78;5093017;28;20208;-78
2022/11/01 11:31:25;;;;;;;2.07;1.80;;;;;;;17.39;61.07;100743.16;5092344;28;20209;-78